sensor_id;sensor_type;location;lat;lon;timestamp;P1;durP1;ratioP1;P2;durP2;ratioP2
4694;SDS011;2361;49.540;8.390;2023-04-24T00:01:09;0.40;;;0.40;;
4694;SDS011;2361;49.540;8.390;2023-04-24T00:03:36;0.70;;;0.70;;
4694;SDS011;2361;49.540;8.390;2023-04-24T00:06:05;1.80;;;0.50;;
4694;SDS011;2361;49.540;8.390;2023-04-24T00:08:37;0.40;;;0.40;;
4694;SDS011;2361;49.540;8.390;2023-04-24T00:11:04;0.60;;;0.60;;
4694;SDS011;2361;49.540;8.390;2023-04-24T00:13:31;0.67;;;0.67;;
4694;SDS011;2361;49.540;8.390;2023-04-24T00:15:58;0.40;;;0.40;;
4694;SDS011;2361;49.540;8.390;2023-04-24T00:18:25;0.40;;;0.40;;
4694;SDS011;2361;49.540;8.390;2023-04-24T00:20:52;0.40;;;0.40;;
4694;SDS011;2361;49.540;8.390;2023-04-24T00:23:19;0.50;;;0.50;;
4694;SDS011;2361;49.540;8.390;2023-04-24T00:25:45;0.80;;;0.80;;
4694;SDS011;2361;49.540;8.390;2023-04-24T00:28:12;0.40;;;0.40;;
4694;SDS011;2361;49.540;8.390;2023-04-24T00:30:39;0.27;;;0.27;;
4694;SDS011;2361;49.540;8.390;2023-04-24T00:33:06;0.70;;;0.50;;
4694;SDS011;2361;49.540;8.390;2023-04-24T00:35:33;0.40;;;0.40;;
4694;SDS011;2361;49.540;8.390;2023-04-24T00:38:00;0.60;;;0.60;;
4694;SDS011;2361;49.540;8.390;2023-04-24T00:40:28;1.00;;;0.60;;
4694;SDS011;2361;49.540;8.390;2023-04-24T00:42:55;0.60;;;0.60;;
4694;SDS011;2361;49.540;8.390;2023-04-24T00:45:22;0.70;;;0.70;;
4694;SDS011;2361;49.540;8.390;2023-04-24T00:47:49;0.60;;;0.60;;
4694;SDS011;2361;49.540;8.390;2023-04-24T00:50:20;0.57;;;0.57;;
4694;SDS011;2361;49.540;8.390;2023-04-24T00:52:47;0.50;;;0.50;;
4694;SDS011;2361;49.540;8.390;2023-04-24T00:55:15;0.70;;;0.70;;
4694;SDS011;2361;49.540;8.390;2023-04-24T00:57:42;0.50;;;0.50;;
4694;SDS011;2361;49.540;8.390;2023-04-24T01:00:10;0.60;;;0.60;;
4694;SDS011;2361;49.540;8.390;2023-04-24T01:02:41;0.30;;;0.30;;
4694;SDS011;2361;49.540;8.390;2023-04-24T01:05:12;0.70;;;0.70;;
4694;SDS011;2361;49.540;8.390;2023-04-24T01:07:41;0.50;;;0.50;;
4694;SDS011;2361;49.540;8.390;2023-04-24T01:10:13;0.50;;;0.50;;
4694;SDS011;2361;49.540;8.390;2023-04-24T01:12:41;0.40;;;0.40;;
4694;SDS011;2361;49.540;8.390;2023-04-24T01:15:08;0.60;;;0.60;;
4694;SDS011;2361;49.540;8.390;2023-04-24T01:17:36;0.60;;;0.60;;
4694;SDS011;2361;49.540;8.390;2023-04-24T01:20:04;0.40;;;0.40;;
4694;SDS011;2361;49.540;8.390;2023-04-24T01:22:33;0.60;;;0.60;;
4694;SDS011;2361;49.540;8.390;2023-04-24T01:25:01;0.30;;;0.30;;
4694;SDS011;2361;49.540;8.390;2023-04-24T01:27:29;0.67;;;0.47;;
4694;SDS011;2361;49.540;8.390;2023-04-24T01:29:56;1.00;;;0.70;;
4694;SDS011;2361;49.540;8.390;2023-04-24T01:32:23;0.50;;;0.50;;
4694;SDS011;2361;49.540;8.390;2023-04-24T01:34:51;0.30;;;0.30;;
4694;SDS011;2361;49.540;8.390;2023-04-24T01:37:18;0.57;;;0.57;;
4694;SDS011;2361;49.540;8.390;2023-04-24T01:39:45;0.40;;;0.40;;
4694;SDS011;2361;49.540;8.390;2023-04-24T01:42:12;0.40;;;0.40;;
4694;SDS011;2361;49.540;8.390;2023-04-24T01:44:40;1.80;;;0.70;;
4694;SDS011;2361;49.540;8.390;2023-04-24T01:47:08;0.40;;;0.40;;
4694;SDS011;2361;49.540;8.390;2023-04-24T01:49:35;0.50;;;0.50;;
4694;SDS011;2361;49.540;8.390;2023-04-24T01:52:04;0.30;;;0.30;;
4694;SDS011;2361;49.540;8.390;2023-04-24T01:54:32;0.70;;;0.70;;
4694;SDS011;2361;49.540;8.390;2023-04-24T01:56:59;0.40;;;0.40;;
4694;SDS011;2361;49.540;8.390;2023-04-24T01:59:28;0.50;;;0.50;;
4694;SDS011;2361;49.540;8.390;2023-04-24T02:01:56;1.63;;;1.00;;
4694;SDS011;2361;49.540;8.390;2023-04-24T02:04:23;0.40;;;0.40;;
4694;SDS011;2361;49.540;8.390;2023-04-24T02:06:50;1.13;;;0.60;;
4694;SDS011;2361;49.540;8.390;2023-04-24T02:09:17;0.57;;;0.57;;
4694;SDS011;2361;49.540;8.390;2023-04-24T02:11:44;0.60;;;0.60;;
4694;SDS011;2361;49.540;8.390;2023-04-24T02:14:11;4.33;;;0.97;;
4694;SDS011;2361;49.540;8.390;2023-04-24T02:16:38;0.63;;;0.63;;
4694;SDS011;2361;49.540;8.390;2023-04-24T02:19:05;0.70;;;0.70;;
4694;SDS011;2361;49.540;8.390;2023-04-24T02:21:32;1.77;;;1.23;;
4694;SDS011;2361;49.540;8.390;2023-04-24T02:23:59;1.00;;;1.00;;
4694;SDS011;2361;49.540;8.390;2023-04-24T02:26:27;1.17;;;0.90;;
4694;SDS011;2361;49.540;8.390;2023-04-24T02:28:54;2.13;;;1.10;;
4694;SDS011;2361;49.540;8.390;2023-04-24T02:31:20;0.90;;;0.90;;
4694;SDS011;2361;49.540;8.390;2023-04-24T02:33:48;0.70;;;0.70;;
4694;SDS011;2361;49.540;8.390;2023-04-24T02:36:14;1.00;;;1.00;;
4694;SDS011;2361;49.540;8.390;2023-04-24T02:38:41;5.13;;;0.70;;
4694;SDS011;2361;49.540;8.390;2023-04-24T02:41:08;1.27;;;0.77;;
4694;SDS011;2361;49.540;8.390;2023-04-24T02:43:35;0.60;;;0.60;;
4694;SDS011;2361;49.540;8.390;2023-04-24T02:46:02;0.70;;;0.70;;
4694;SDS011;2361;49.540;8.390;2023-04-24T02:48:30;0.53;;;0.50;;
4694;SDS011;2361;49.540;8.390;2023-04-24T02:50:57;0.80;;;0.80;;
4694;SDS011;2361;49.540;8.390;2023-04-24T02:53:24;0.80;;;0.80;;
4694;SDS011;2361;49.540;8.390;2023-04-24T02:55:51;1.33;;;0.70;;
4694;SDS011;2361;49.540;8.390;2023-04-24T02:58:18;0.70;;;0.70;;
4694;SDS011;2361;49.540;8.390;2023-04-24T03:00:46;0.73;;;0.70;;
4694;SDS011;2361;49.540;8.390;2023-04-24T03:03:13;0.70;;;0.70;;
4694;SDS011;2361;49.540;8.390;2023-04-24T03:05:41;0.70;;;0.70;;
4694;SDS011;2361;49.540;8.390;2023-04-24T03:08:08;0.80;;;0.77;;
4694;SDS011;2361;49.540;8.390;2023-04-24T03:10:36;0.80;;;0.70;;
4694;SDS011;2361;49.540;8.390;2023-04-24T03:13:03;1.00;;;1.00;;
4694;SDS011;2361;49.540;8.390;2023-04-24T03:15:30;0.93;;;0.93;;
4694;SDS011;2361;49.540;8.390;2023-04-24T03:17:57;0.80;;;0.77;;
4694;SDS011;2361;49.540;8.390;2023-04-24T03:20:24;1.03;;;1.03;;
4694;SDS011;2361;49.540;8.390;2023-04-24T03:22:52;1.20;;;1.20;;
4694;SDS011;2361;49.540;8.390;2023-04-24T03:25:19;0.90;;;0.90;;
4694;SDS011;2361;49.540;8.390;2023-04-24T03:27:46;1.10;;;1.10;;
4694;SDS011;2361;49.540;8.390;2023-04-24T03:30:13;1.10;;;1.00;;
4694;SDS011;2361;49.540;8.390;2023-04-24T03:32:40;1.07;;;1.07;;
4694;SDS011;2361;49.540;8.390;2023-04-24T03:35:07;1.03;;;1.03;;
4694;SDS011;2361;49.540;8.390;2023-04-24T03:37:34;1.50;;;1.50;;
4694;SDS011;2361;49.540;8.390;2023-04-24T03:40:01;1.73;;;1.63;;
4694;SDS011;2361;49.540;8.390;2023-04-24T03:42:29;1.30;;;1.20;;
4694;SDS011;2361;49.540;8.390;2023-04-24T03:44:56;1.20;;;1.20;;
4694;SDS011;2361;49.540;8.390;2023-04-24T03:47:23;1.23;;;1.23;;
4694;SDS011;2361;49.540;8.390;2023-04-24T03:49:50;0.93;;;0.93;;
4694;SDS011;2361;49.540;8.390;2023-04-24T03:52:17;1.50;;;1.43;;
4694;SDS011;2361;49.540;8.390;2023-04-24T03:54:44;1.00;;;1.00;;
4694;SDS011;2361;49.540;8.390;2023-04-24T03:57:11;1.50;;;1.40;;
4694;SDS011;2361;49.540;8.390;2023-04-24T03:59:38;0.90;;;0.90;;
4694;SDS011;2361;49.540;8.390;2023-04-24T04:02:05;1.30;;;1.30;;
4694;SDS011;2361;49.540;8.390;2023-04-24T04:04:32;1.13;;;1.13;;
4694;SDS011;2361;49.540;8.390;2023-04-24T04:06:59;2.87;;;1.53;;
4694;SDS011;2361;49.540;8.390;2023-04-24T04:09:29;0.93;;;0.93;;
4694;SDS011;2361;49.540;8.390;2023-04-24T04:11:56;1.20;;;1.20;;
4694;SDS011;2361;49.540;8.390;2023-04-24T04:14:22;1.20;;;1.20;;
4694;SDS011;2361;49.540;8.390;2023-04-24T04:16:49;1.67;;;1.43;;
4694;SDS011;2361;49.540;8.390;2023-04-24T04:19:20;1.10;;;1.10;;
4694;SDS011;2361;49.540;8.390;2023-04-24T04:21:47;0.93;;;0.93;;
4694;SDS011;2361;49.540;8.390;2023-04-24T04:24:19;1.00;;;1.00;;
4694;SDS011;2361;49.540;8.390;2023-04-24T04:26:50;1.10;;;1.10;;
4694;SDS011;2361;49.540;8.390;2023-04-24T04:29:18;1.20;;;1.20;;
4694;SDS011;2361;49.540;8.390;2023-04-24T04:31:45;0.97;;;0.97;;
4694;SDS011;2361;49.540;8.390;2023-04-24T04:34:12;1.33;;;1.33;;
4694;SDS011;2361;49.540;8.390;2023-04-24T04:36:40;1.50;;;1.40;;
4694;SDS011;2361;49.540;8.390;2023-04-24T04:39:08;1.43;;;1.43;;
4694;SDS011;2361;49.540;8.390;2023-04-24T04:41:35;1.33;;;1.33;;
4694;SDS011;2361;49.540;8.390;2023-04-24T04:44:01;1.20;;;1.20;;
4694;SDS011;2361;49.540;8.390;2023-04-24T04:46:31;1.37;;;1.37;;
4694;SDS011;2361;49.540;8.390;2023-04-24T04:49:03;0.93;;;0.93;;
4694;SDS011;2361;49.540;8.390;2023-04-24T04:51:30;2.77;;;1.53;;
4694;SDS011;2361;49.540;8.390;2023-04-24T04:53:58;1.63;;;1.53;;
4694;SDS011;2361;49.540;8.390;2023-04-24T04:56:25;2.30;;;2.10;;
4694;SDS011;2361;49.540;8.390;2023-04-24T04:58:52;1.70;;;1.60;;
4694;SDS011;2361;49.540;8.390;2023-04-24T05:01:19;2.10;;;2.00;;
4694;SDS011;2361;49.540;8.390;2023-04-24T05:03:46;1.67;;;1.57;;
4694;SDS011;2361;49.540;8.390;2023-04-24T05:06:13;2.07;;;1.97;;
4694;SDS011;2361;49.540;8.390;2023-04-24T05:08:40;1.90;;;1.80;;
4694;SDS011;2361;49.540;8.390;2023-04-24T05:11:07;2.00;;;1.90;;
4694;SDS011;2361;49.540;8.390;2023-04-24T05:13:34;2.50;;;2.40;;
4694;SDS011;2361;49.540;8.390;2023-04-24T05:16:06;2.03;;;1.93;;
4694;SDS011;2361;49.540;8.390;2023-04-24T05:18:33;2.50;;;2.40;;
4694;SDS011;2361;49.540;8.390;2023-04-24T05:21:00;2.50;;;2.40;;
4694;SDS011;2361;49.540;8.390;2023-04-24T05:23:27;2.43;;;2.33;;
4694;SDS011;2361;49.540;8.390;2023-04-24T05:25:54;2.27;;;2.17;;
4694;SDS011;2361;49.540;8.390;2023-04-24T05:28:21;1.63;;;1.53;;
4694;SDS011;2361;49.540;8.390;2023-04-24T05:30:48;1.60;;;1.50;;
4694;SDS011;2361;49.540;8.390;2023-04-24T05:33:15;2.20;;;2.10;;
4694;SDS011;2361;49.540;8.390;2023-04-24T05:35:42;2.40;;;2.20;;
4694;SDS011;2361;49.540;8.390;2023-04-24T05:38:12;3.10;;;2.90;;
4694;SDS011;2361;49.540;8.390;2023-04-24T05:40:41;2.83;;;2.63;;
4694;SDS011;2361;49.540;8.390;2023-04-24T05:43:08;3.80;;;2.83;;
4694;SDS011;2361;49.540;8.390;2023-04-24T05:45:34;4.57;;;2.90;;
4694;SDS011;2361;49.540;8.390;2023-04-24T05:48:02;2.60;;;2.40;;
4694;SDS011;2361;49.540;8.390;2023-04-24T05:50:30;3.00;;;2.80;;
4694;SDS011;2361;49.540;8.390;2023-04-24T05:52:57;3.10;;;2.90;;
4694;SDS011;2361;49.540;8.390;2023-04-24T05:55:28;2.93;;;2.80;;
4694;SDS011;2361;49.540;8.390;2023-04-24T05:57:56;2.47;;;2.37;;
4694;SDS011;2361;49.540;8.390;2023-04-24T06:00:23;2.17;;;1.97;;
4694;SDS011;2361;49.540;8.390;2023-04-24T06:02:51;2.20;;;2.10;;
4694;SDS011;2361;49.540;8.390;2023-04-24T06:05:19;2.23;;;2.03;;
4694;SDS011;2361;49.540;8.390;2023-04-24T06:07:46;3.20;;;2.90;;
4694;SDS011;2361;49.540;8.390;2023-04-24T06:10:14;2.90;;;2.70;;
4694;SDS011;2361;49.540;8.390;2023-04-24T06:12:41;4.03;;;3.03;;
4694;SDS011;2361;49.540;8.390;2023-04-24T06:15:08;3.20;;;2.93;;
4694;SDS011;2361;49.540;8.390;2023-04-24T06:17:36;3.37;;;3.07;;
4694;SDS011;2361;49.540;8.390;2023-04-24T06:20:03;5.20;;;3.03;;
4694;SDS011;2361;49.540;8.390;2023-04-24T06:22:32;2.90;;;2.80;;
4694;SDS011;2361;49.540;8.390;2023-04-24T06:24:59;3.17;;;2.97;;
4694;SDS011;2361;49.540;8.390;2023-04-24T06:27:27;2.80;;;1.67;;
4694;SDS011;2361;49.540;8.390;2023-04-24T06:29:54;2.20;;;2.10;;
4694;SDS011;2361;49.540;8.390;2023-04-24T06:32:22;2.77;;;2.57;;
4694;SDS011;2361;49.540;8.390;2023-04-24T06:34:51;2.40;;;2.20;;
4694;SDS011;2361;49.540;8.390;2023-04-24T06:37:19;3.27;;;2.77;;
4694;SDS011;2361;49.540;8.390;2023-04-24T06:39:46;1.80;;;1.70;;
4694;SDS011;2361;49.540;8.390;2023-04-24T06:42:14;2.60;;;2.40;;
4694;SDS011;2361;49.540;8.390;2023-04-24T06:44:41;2.40;;;2.20;;
4694;SDS011;2361;49.540;8.390;2023-04-24T06:47:11;2.50;;;2.40;;
4694;SDS011;2361;49.540;8.390;2023-04-24T06:49:41;2.10;;;2.00;;
4694;SDS011;2361;49.540;8.390;2023-04-24T06:52:08;2.10;;;2.00;;
4694;SDS011;2361;49.540;8.390;2023-04-24T06:54:35;2.13;;;2.03;;
4694;SDS011;2361;49.540;8.390;2023-04-24T06:57:02;1.37;;;1.30;;
4694;SDS011;2361;49.540;8.390;2023-04-24T06:59:29;1.47;;;1.40;;
4694;SDS011;2361;49.540;8.390;2023-04-24T07:01:56;1.50;;;1.27;;
4694;SDS011;2361;49.540;8.390;2023-04-24T07:04:24;1.40;;;1.30;;
4694;SDS011;2361;49.540;8.390;2023-04-24T07:06:51;1.63;;;1.53;;
4694;SDS011;2361;49.540;8.390;2023-04-24T07:09:22;0.87;;;0.87;;
4694;SDS011;2361;49.540;8.390;2023-04-24T07:11:50;1.30;;;1.30;;
4694;SDS011;2361;49.540;8.390;2023-04-24T07:14:19;2.53;;;1.20;;
4694;SDS011;2361;49.540;8.390;2023-04-24T07:16:46;1.40;;;1.10;;
4694;SDS011;2361;49.540;8.390;2023-04-24T07:19:13;2.77;;;1.73;;
4694;SDS011;2361;49.540;8.390;2023-04-24T07:21:41;1.70;;;1.60;;
4694;SDS011;2361;49.540;8.390;2023-04-24T07:24:08;1.40;;;1.40;;
4694;SDS011;2361;49.540;8.390;2023-04-24T07:26:37;1.13;;;1.10;;
4694;SDS011;2361;49.540;8.390;2023-04-24T07:29:06;0.67;;;0.67;;
4694;SDS011;2361;49.540;8.390;2023-04-24T07:31:33;1.60;;;1.50;;
4694;SDS011;2361;49.540;8.390;2023-04-24T07:34:00;1.40;;;1.40;;
4694;SDS011;2361;49.540;8.390;2023-04-24T07:36:27;1.40;;;1.40;;
4694;SDS011;2361;49.540;8.390;2023-04-24T07:38:55;1.60;;;1.60;;
4694;SDS011;2361;49.540;8.390;2023-04-24T07:41:23;1.40;;;1.40;;
4694;SDS011;2361;49.540;8.390;2023-04-24T07:43:50;1.20;;;1.20;;
4694;SDS011;2361;49.540;8.390;2023-04-24T07:46:20;1.13;;;1.13;;
4694;SDS011;2361;49.540;8.390;2023-04-24T07:48:47;1.10;;;1.10;;
4694;SDS011;2361;49.540;8.390;2023-04-24T07:51:24;1.67;;;1.67;;
4694;SDS011;2361;49.540;8.390;2023-04-24T07:53:53;1.30;;;1.10;;
4694;SDS011;2361;49.540;8.390;2023-04-24T07:56:23;1.40;;;1.40;;
4694;SDS011;2361;49.540;8.390;2023-04-24T07:58:53;1.27;;;1.27;;
4694;SDS011;2361;49.540;8.390;2023-04-24T08:01:20;1.27;;;1.27;;
4694;SDS011;2361;49.540;8.390;2023-04-24T08:03:50;2.03;;;1.50;;
4694;SDS011;2361;49.540;8.390;2023-04-24T08:06:18;2.53;;;1.50;;
4694;SDS011;2361;49.540;8.390;2023-04-24T08:08:45;0.77;;;0.77;;
4694;SDS011;2361;49.540;8.390;2023-04-24T08:11:12;1.10;;;1.10;;
4694;SDS011;2361;49.540;8.390;2023-04-24T08:13:39;1.37;;;1.37;;
4694;SDS011;2361;49.540;8.390;2023-04-24T08:16:06;1.40;;;1.37;;
4694;SDS011;2361;49.540;8.390;2023-04-24T08:18:33;3.37;;;2.80;;
4694;SDS011;2361;49.540;8.390;2023-04-24T08:21:02;1.70;;;1.70;;
4694;SDS011;2361;49.540;8.390;2023-04-24T08:23:29;1.70;;;1.60;;
4694;SDS011;2361;49.540;8.390;2023-04-24T08:25:56;1.40;;;1.37;;
4694;SDS011;2361;49.540;8.390;2023-04-24T08:28:23;3.07;;;1.10;;
4694;SDS011;2361;49.540;8.390;2023-04-24T08:30:51;1.87;;;1.30;;
4694;SDS011;2361;49.540;8.390;2023-04-24T08:33:23;1.47;;;1.40;;
4694;SDS011;2361;49.540;8.390;2023-04-24T08:35:51;1.57;;;1.57;;
4694;SDS011;2361;49.540;8.390;2023-04-24T08:38:18;1.63;;;1.60;;
4694;SDS011;2361;49.540;8.390;2023-04-24T08:40:47;2.03;;;1.90;;
4694;SDS011;2361;49.540;8.390;2023-04-24T08:43:15;2.00;;;1.90;;
4694;SDS011;2361;49.540;8.390;2023-04-24T08:45:43;1.87;;;1.77;;
4694;SDS011;2361;49.540;8.390;2023-04-24T08:48:10;1.30;;;1.30;;
4694;SDS011;2361;49.540;8.390;2023-04-24T08:50:50;0.63;;;0.63;;
4694;SDS011;2361;49.540;8.390;2023-04-24T08:53:17;1.93;;;1.50;;
4694;SDS011;2361;49.540;8.390;2023-04-24T08:55:46;1.20;;;1.20;;
4694;SDS011;2361;49.540;8.390;2023-04-24T08:58:15;1.90;;;1.87;;
4694;SDS011;2361;49.540;8.390;2023-04-24T09:00:43;1.63;;;1.63;;
4694;SDS011;2361;49.540;8.390;2023-04-24T09:03:13;2.07;;;1.97;;
4694;SDS011;2361;49.540;8.390;2023-04-24T09:05:43;2.83;;;1.47;;
4694;SDS011;2361;49.540;8.390;2023-04-24T09:08:13;2.03;;;1.70;;
4694;SDS011;2361;49.540;8.390;2023-04-24T09:10:40;3.70;;;1.63;;
4694;SDS011;2361;49.540;8.390;2023-04-24T09:13:07;1.37;;;1.37;;
4694;SDS011;2361;49.540;8.390;2023-04-24T09:15:36;1.80;;;1.70;;
4694;SDS011;2361;49.540;8.390;2023-04-24T09:18:05;1.40;;;1.30;;
4694;SDS011;2361;49.540;8.390;2023-04-24T09:20:32;2.60;;;1.97;;
4694;SDS011;2361;49.540;8.390;2023-04-24T09:22:59;1.60;;;1.50;;
4694;SDS011;2361;49.540;8.390;2023-04-24T09:25:32;1.60;;;1.50;;
4694;SDS011;2361;49.540;8.390;2023-04-24T09:28:02;1.50;;;1.40;;
4694;SDS011;2361;49.540;8.390;2023-04-24T09:30:30;1.93;;;1.70;;
4694;SDS011;2361;49.540;8.390;2023-04-24T09:33:10;2.07;;;1.97;;
4694;SDS011;2361;49.540;8.390;2023-04-24T09:35:42;1.93;;;1.70;;
4694;SDS011;2361;49.540;8.390;2023-04-24T09:38:16;2.07;;;1.97;;
4694;SDS011;2361;49.540;8.390;2023-04-24T09:40:43;1.87;;;1.77;;
4694;SDS011;2361;49.540;8.390;2023-04-24T09:43:10;1.43;;;1.30;;
4694;SDS011;2361;49.540;8.390;2023-04-24T09:45:38;0.93;;;0.93;;
4694;SDS011;2361;49.540;8.390;2023-04-24T09:48:09;2.07;;;1.87;;
4694;SDS011;2361;49.540;8.390;2023-04-24T09:50:36;2.20;;;2.10;;
4694;SDS011;2361;49.540;8.390;2023-04-24T09:53:04;3.30;;;1.90;;
4694;SDS011;2361;49.540;8.390;2023-04-24T09:55:42;1.40;;;1.40;;
4694;SDS011;2361;49.540;8.390;2023-04-24T09:58:12;2.10;;;1.50;;
4694;SDS011;2361;49.540;8.390;2023-04-24T10:00:39;1.60;;;1.50;;
4694;SDS011;2361;49.540;8.390;2023-04-24T10:03:06;1.30;;;1.30;;
4694;SDS011;2361;49.540;8.390;2023-04-24T10:05:35;1.73;;;1.73;;
4694;SDS011;2361;49.540;8.390;2023-04-24T10:08:06;1.40;;;1.37;;
4694;SDS011;2361;49.540;8.390;2023-04-24T10:10:40;1.00;;;1.00;;
4694;SDS011;2361;49.540;8.390;2023-04-24T10:13:11;1.83;;;1.40;;
4694;SDS011;2361;49.540;8.390;2023-04-24T10:15:41;0.40;;;0.40;;
4694;SDS011;2361;49.540;8.390;2023-04-24T10:18:09;1.20;;;1.10;;
4694;SDS011;2361;49.540;8.390;2023-04-24T10:20:38;1.17;;;1.03;;
4694;SDS011;2361;49.540;8.390;2023-04-24T10:23:06;1.57;;;1.47;;
4694;SDS011;2361;49.540;8.390;2023-04-24T10:25:34;2.17;;;1.50;;
4694;SDS011;2361;49.540;8.390;2023-04-24T10:28:03;2.50;;;1.60;;
4694;SDS011;2361;49.540;8.390;2023-04-24T10:30:32;0.50;;;0.47;;
4694;SDS011;2361;49.540;8.390;2023-04-24T10:33:04;1.60;;;1.50;;
4694;SDS011;2361;49.540;8.390;2023-04-24T10:35:40;2.13;;;1.37;;
4694;SDS011;2361;49.540;8.390;2023-04-24T10:38:12;5.40;;;3.67;;
4694;SDS011;2361;49.540;8.390;2023-04-24T10:40:42;13.43;;;7.70;;
4694;SDS011;2361;49.540;8.390;2023-04-24T10:43:10;1.97;;;1.87;;
4694;SDS011;2361;49.540;8.390;2023-04-24T10:45:43;1.83;;;1.73;;
4694;SDS011;2361;49.540;8.390;2023-04-24T10:48:29;1.70;;;1.60;;
4694;SDS011;2361;49.540;8.390;2023-04-24T10:50:58;2.00;;;1.90;;
4694;SDS011;2361;49.540;8.390;2023-04-24T10:53:29;1.40;;;1.30;;
4694;SDS011;2361;49.540;8.390;2023-04-24T10:56:07;1.10;;;1.00;;
4694;SDS011;2361;49.540;8.390;2023-04-24T10:58:41;1.40;;;1.40;;
4694;SDS011;2361;49.540;8.390;2023-04-24T11:01:24;1.73;;;1.63;;
4694;SDS011;2361;49.540;8.390;2023-04-24T11:03:57;2.80;;;2.40;;
4694;SDS011;2361;49.540;8.390;2023-04-24T11:06:30;1.90;;;1.80;;
4694;SDS011;2361;49.540;8.390;2023-04-24T11:09:05;1.60;;;1.50;;
4694;SDS011;2361;49.540;8.390;2023-04-24T11:11:36;1.90;;;1.80;;
4694;SDS011;2361;49.540;8.390;2023-04-24T11:14:06;3.40;;;1.70;;
4694;SDS011;2361;49.540;8.390;2023-04-24T11:16:53;1.90;;;1.80;;
4694;SDS011;2361;49.540;8.390;2023-04-24T11:19:24;9.43;;;6.23;;
4694;SDS011;2361;49.540;8.390;2023-04-24T11:21:57;13.37;;;8.20;;
4694;SDS011;2361;49.540;8.390;2023-04-24T11:24:37;2.37;;;2.17;;
4694;SDS011;2361;49.540;8.390;2023-04-24T11:27:07;1.80;;;1.70;;
4694;SDS011;2361;49.540;8.390;2023-04-24T11:32:26;2.43;;;2.30;;
4694;SDS011;2361;49.540;8.390;2023-04-24T11:35:00;2.40;;;2.30;;
4694;SDS011;2361;49.540;8.390;2023-04-24T11:37:42;3.10;;;2.80;;
4694;SDS011;2361;49.540;8.390;2023-04-24T11:40:13;1.00;;;1.00;;
4694;SDS011;2361;49.540;8.390;2023-04-24T11:42:43;2.57;;;2.37;;
4694;SDS011;2361;49.540;8.390;2023-04-24T11:45:12;2.17;;;2.07;;
4694;SDS011;2361;49.540;8.390;2023-04-24T11:47:44;3.10;;;2.90;;
4694;SDS011;2361;49.540;8.390;2023-04-24T11:50:15;3.70;;;2.07;;
4694;SDS011;2361;49.540;8.390;2023-04-24T11:52:45;2.23;;;2.13;;
4694;SDS011;2361;49.540;8.390;2023-04-24T11:57:45;1.90;;;1.80;;
4694;SDS011;2361;49.540;8.390;2023-04-24T12:00:17;2.40;;;1.80;;
4694;SDS011;2361;49.540;8.390;2023-04-24T12:02:46;2.50;;;2.37;;
4694;SDS011;2361;49.540;8.390;2023-04-24T12:05:24;2.50;;;2.33;;
4694;SDS011;2361;49.540;8.390;2023-04-24T12:07:53;2.13;;;2.03;;
4694;SDS011;2361;49.540;8.390;2023-04-24T12:10:21;0.93;;;0.70;;
4694;SDS011;2361;49.540;8.390;2023-04-24T12:12:50;2.83;;;1.53;;
4694;SDS011;2361;49.540;8.390;2023-04-24T12:15:18;1.47;;;1.40;;
4694;SDS011;2361;49.540;8.390;2023-04-24T12:17:46;2.00;;;1.90;;
4694;SDS011;2361;49.540;8.390;2023-04-24T12:20:14;2.77;;;2.57;;
4694;SDS011;2361;49.540;8.390;2023-04-24T12:22:48;1.63;;;1.53;;
4694;SDS011;2361;49.540;8.390;2023-04-24T12:25:24;3.77;;;1.60;;
4694;SDS011;2361;49.540;8.390;2023-04-24T12:27:54;1.70;;;1.50;;
4694;SDS011;2361;49.540;8.390;2023-04-24T12:30:46;2.77;;;2.57;;
4694;SDS011;2361;49.540;8.390;2023-04-24T12:33:21;6.43;;;2.60;;
4694;SDS011;2361;49.540;8.390;2023-04-24T12:35:51;3.00;;;2.67;;
4694;SDS011;2361;49.540;8.390;2023-04-24T12:38:22;0.70;;;0.70;;
4694;SDS011;2361;49.540;8.390;2023-04-24T12:43:35;2.03;;;1.80;;
4694;SDS011;2361;49.540;8.390;2023-04-24T12:46:03;2.60;;;2.40;;
4694;SDS011;2361;49.540;8.390;2023-04-24T12:48:31;2.50;;;2.30;;
4694;SDS011;2361;49.540;8.390;2023-04-24T12:50:58;2.33;;;2.20;;
4694;SDS011;2361;49.540;8.390;2023-04-24T12:53:29;2.57;;;2.00;;
4694;SDS011;2361;49.540;8.390;2023-04-24T12:55:57;8.03;;;2.20;;
4694;SDS011;2361;49.540;8.390;2023-04-24T12:58:24;0.50;;;0.47;;
4694;SDS011;2361;49.540;8.390;2023-04-24T13:00:51;1.53;;;1.43;;
4694;SDS011;2361;49.540;8.390;2023-04-24T13:03:18;0.60;;;0.60;;
4694;SDS011;2361;49.540;8.390;2023-04-24T13:05:46;0.83;;;0.83;;
4694;SDS011;2361;49.540;8.390;2023-04-24T13:08:13;2.10;;;2.00;;
4694;SDS011;2361;49.540;8.390;2023-04-24T13:10:40;1.17;;;1.07;;
4694;SDS011;2361;49.540;8.390;2023-04-24T13:13:07;2.37;;;2.17;;
4694;SDS011;2361;49.540;8.390;2023-04-24T13:15:35;1.10;;;1.07;;
4694;SDS011;2361;49.540;8.390;2023-04-24T13:18:02;6.20;;;1.90;;
4694;SDS011;2361;49.540;8.390;2023-04-24T13:20:29;1.63;;;1.53;;
4694;SDS011;2361;49.540;8.390;2023-04-24T13:22:56;1.80;;;1.70;;
4694;SDS011;2361;49.540;8.390;2023-04-24T13:25:23;2.73;;;2.57;;
4694;SDS011;2361;49.540;8.390;2023-04-24T13:27:51;2.23;;;2.13;;
4694;SDS011;2361;49.540;8.390;2023-04-24T13:30:18;1.97;;;1.77;;
4694;SDS011;2361;49.540;8.390;2023-04-24T13:32:44;2.00;;;1.90;;
4694;SDS011;2361;49.540;8.390;2023-04-24T13:35:11;1.90;;;1.80;;
4694;SDS011;2361;49.540;8.390;2023-04-24T13:37:38;2.10;;;2.00;;
4694;SDS011;2361;49.540;8.390;2023-04-24T13:40:05;2.10;;;1.90;;
4694;SDS011;2361;49.540;8.390;2023-04-24T13:42:33;1.80;;;1.70;;
4694;SDS011;2361;49.540;8.390;2023-04-24T13:45:00;0.50;;;0.50;;
4694;SDS011;2361;49.540;8.390;2023-04-24T13:47:39;2.23;;;2.07;;
4694;SDS011;2361;49.540;8.390;2023-04-24T13:50:08;5.30;;;2.30;;
4694;SDS011;2361;49.540;8.390;2023-04-24T13:52:35;6.80;;;1.63;;
4694;SDS011;2361;49.540;8.390;2023-04-24T13:55:02;1.70;;;1.60;;
4694;SDS011;2361;49.540;8.390;2023-04-24T13:57:29;2.10;;;2.00;;
4694;SDS011;2361;49.540;8.390;2023-04-24T13:59:57;2.83;;;1.70;;
4694;SDS011;2361;49.540;8.390;2023-04-24T14:02:28;2.37;;;2.27;;
4694;SDS011;2361;49.540;8.390;2023-04-24T14:04:55;2.53;;;2.43;;
4694;SDS011;2361;49.540;8.390;2023-04-24T14:07:22;2.40;;;1.83;;
4694;SDS011;2361;49.540;8.390;2023-04-24T14:09:49;1.33;;;1.23;;
4694;SDS011;2361;49.540;8.390;2023-04-24T14:12:16;2.83;;;2.10;;
4694;SDS011;2361;49.540;8.390;2023-04-24T14:14:46;3.93;;;1.77;;
4694;SDS011;2361;49.540;8.390;2023-04-24T14:17:14;1.53;;;1.47;;
4694;SDS011;2361;49.540;8.390;2023-04-24T14:19:41;1.67;;;1.53;;
4694;SDS011;2361;49.540;8.390;2023-04-24T14:22:08;1.90;;;1.70;;
4694;SDS011;2361;49.540;8.390;2023-04-24T14:24:35;1.60;;;1.50;;
4694;SDS011;2361;49.540;8.390;2023-04-24T14:27:02;1.80;;;1.70;;
4694;SDS011;2361;49.540;8.390;2023-04-24T14:29:29;1.83;;;1.73;;
4694;SDS011;2361;49.540;8.390;2023-04-24T14:31:57;2.90;;;2.70;;
4694;SDS011;2361;49.540;8.390;2023-04-24T14:34:24;2.30;;;2.10;;
4694;SDS011;2361;49.540;8.390;2023-04-24T14:36:52;2.97;;;1.83;;
4694;SDS011;2361;49.540;8.390;2023-04-24T14:39:19;1.40;;;1.30;;
4694;SDS011;2361;49.540;8.390;2023-04-24T14:41:46;2.30;;;2.20;;
4694;SDS011;2361;49.540;8.390;2023-04-24T14:44:13;1.23;;;1.23;;
4694;SDS011;2361;49.540;8.390;2023-04-24T14:46:41;8.00;;;5.07;;
4694;SDS011;2361;49.540;8.390;2023-04-24T14:49:08;2.43;;;2.23;;
4694;SDS011;2361;49.540;8.390;2023-04-24T14:51:36;2.73;;;2.53;;
4694;SDS011;2361;49.540;8.390;2023-04-24T14:54:03;1.73;;;1.63;;
4694;SDS011;2361;49.540;8.390;2023-04-24T14:56:30;1.93;;;1.53;;
4694;SDS011;2361;49.540;8.390;2023-04-24T14:58:57;2.93;;;2.73;;
4694;SDS011;2361;49.540;8.390;2023-04-24T15:01:24;3.13;;;2.93;;
4694;SDS011;2361;49.540;8.390;2023-04-24T15:03:51;4.03;;;2.60;;
4694;SDS011;2361;49.540;8.390;2023-04-24T15:06:18;4.23;;;2.90;;
4694;SDS011;2361;49.540;8.390;2023-04-24T15:08:46;2.63;;;2.43;;
4694;SDS011;2361;49.540;8.390;2023-04-24T15:11:15;2.50;;;2.40;;
4694;SDS011;2361;49.540;8.390;2023-04-24T15:13:43;5.80;;;4.60;;
4694;SDS011;2361;49.540;8.390;2023-04-24T15:16:13;2.93;;;2.70;;
4694;SDS011;2361;49.540;8.390;2023-04-24T15:18:41;1.90;;;1.80;;
4694;SDS011;2361;49.540;8.390;2023-04-24T15:21:08;2.00;;;1.90;;
4694;SDS011;2361;49.540;8.390;2023-04-24T15:23:34;4.30;;;1.70;;
4694;SDS011;2361;49.540;8.390;2023-04-24T15:26:01;2.30;;;2.20;;
4694;SDS011;2361;49.540;8.390;2023-04-24T15:28:28;2.80;;;1.90;;
4694;SDS011;2361;49.540;8.390;2023-04-24T15:30:55;1.90;;;1.80;;